• Join FlightAware (Why Join?)
  • Login
  • US Flag 
02:23AM EDT


 

Airport Tracker/Info


-or-


 

Live Flight TrackerFlight Track Log ✈ KAP29 ✈ 19-Jul-2013 ✈ KSLK - KBOS

Flight Track Log - Related Links

Times and Time Zones

All times are in EDT time to prevent confusion due to time zone crossing. See the KAP29 flight status page for this flight to view local times or setup timezone preferences in your user account.

Time Position Orientation Groundspeed Altitude Reporting Facility
EDT Latitude Longitude Course Direction KTS MPH feet Rate Location/Type
11:44AM 44.3628 -74.1881 122° Southeast 137 158 9,000  Level Boston Center
11:45AM 44.3631 -74.1678 89° East 69 79 9,000  Level Boston Center
11:46AM 44.3611 -74.1475 98° East 43 49 9,000  Level Boston Center
11:47AM 44.3614 -74.1300 89° East 43 49 9,000  Level Boston Center
11:48AM 44.3617 -74.1097 89° East 48 55 9,000  Level Boston Center
11:49AM 44.3776 -74.1887 122° Southeast  Level FlightAware Approximate
11:49AM 44.3619 -74.0894 89° East 48 55 9,000  Level Boston Center
11:50AM 44.3603 -74.0692 97° East 48 55 9,000  Level Boston Center
11:51AM 44.3606 -74.0517 89° East 48 55 9,000  Level Boston Center
11:52AM 44.3608 -74.0314 89° East 48 55 9,000  Level Boston Center
11:53AM 44.3589 -74.0167 100° East 48 55 9,000  Level Boston Center
11:54AM 44.3592 -73.9936 89° East 48 55 9,000  Level Boston Center
11:55AM 44.3636 -73.9792 67° East 48 55 9,000  Level Boston Center
11:56AM 44.3594 -73.9644 112° Southeast 48 55 9,000 -2,700 Level Boston Center
11:57AM 44.3347 -74.2453 263° West 48 55 3,700 -1,920 Descending Boston Center
11:58AM 44.2994 -74.2356 169° South 140 161 4,800 900 Climbing Boston Center
11:59AM 44.2706 -74.2203 159° South 128 147 5,800 780 Climbing Boston Center
12:00PM 44.2608 -74.1650 104° East 105 121 6,400 720 Climbing Boston Center
12:01PM 44.2386 -74.1150 122° Southeast 135 155 7,300 600 Climbing Boston Center
12:02PM 44.2144 -74.0564 120° Southeast 157 181 7,700 300 Climbing Boston Center
12:03PM 44.1922 -74.0064 122° Southeast 164 189 8,000 300 Climbing Boston Center
12:04PM 44.1658 -73.9536 125° Southeast 169 194 8,400 360 Climbing Boston Center
12:05PM 44.1417 -73.8925 119° Southeast 174 200 8,800 300 Climbing Boston Center
12:06PM 44.1217 -73.8311 114° Southeast 174 200 9,000 60 Climbing Boston Center
12:07PM 44.0975 -73.7642 117° Southeast 179 206 9,000  Level Boston Center
12:08PM 44.0731 -73.6972 117° Southeast 179 206 9,000  Level Boston Center
12:09PM 44.0508 -73.6447 120° Southeast 184 212 9,000  Level Boston Center
12:10PM 44.0164 -73.5486 116° Southeast 216 249 9,000  Level Boston Center
12:11PM 43.9919 -73.4789 116° Southeast 216 249 9,000  Level Boston Center
12:12PM 43.9697 -73.4092 114° Southeast 210 242 9,000  Level Boston Center
12:13PM 43.9453 -73.3369 115° Southeast 204 235 9,000 -60 Level Boston Center
12:14PM 43.9208 -73.2703 117° Southeast 198 228 8,900 -60 Descending Boston Center
12:15PM 43.8942 -73.2036 119° Southeast 198 228 8,900  Level Boston Center
12:16PM 43.8694 -73.1397 118° Southeast 192 221 9,000  Climbing Boston Center
12:17PM 43.8428 -73.0733 119° Southeast 192 221 9,000 -60 Level Boston Center
12:18PM 43.8161 -73.0097 120° Southeast 197 227 8,900 -60 Descending Boston Center
12:19PM 43.7914 -72.9519 121° Southeast 192 221 8,900  Level Boston Center
12:20PM 43.7667 -72.8886 118° Southeast 192 221 8,900  Level Boston Center
12:21PM 43.7419 -72.8281 119° Southeast 187 215 8,900  Level Boston Center
12:22PM 43.7169 -72.7675 120° Southeast 187 215 8,900  Level Boston Center
12:23PM 43.6942 -72.7072 118° Southeast 187 215 8,900  Level Boston Center
12:24PM 43.6694 -72.6439 118° Southeast 181 208 9,000  Climbing Boston Center
12:25PM 43.6425 -72.5836 122° Southeast 186 214 9,000  Level Boston Center
12:26PM 43.6153 -72.5175 120° Southeast 186 214 9,000  Level Boston Center
12:27PM 43.5883 -72.4544 121° Southeast 192 221 9,000  Level Boston Center
12:28PM 43.5611 -72.3886 120° Southeast 192 221 9,000  Level Boston Center
12:29PM 43.5361 -72.3256 119° Southeast 192 221 9,000  Level Boston Center
12:30PM 43.5089 -72.2625 121° Southeast 192 221 9,000  Level Boston Center
12:31PM 43.4817 -72.1969 120° Southeast 187 215 9,000  Level Boston Center
12:32PM 43.4567 -72.1342 119° Southeast 187 215 9,000  Level Boston Center
12:33PM 43.4294 -72.0714 121° Southeast 187 215 9,000  Level Boston Center
12:34PM 43.4000 -72.0000 120° Southeast 187 215 9,000  Level Boston Center
12:35PM 43.3767 -71.9431 119° Southeast 192 221 9,000  Level Boston Center
12:36PM 43.3472 -71.8747 121° Southeast 192 221 9,000  Level Boston Center
12:37PM 43.3156 -71.7981 120° Southeast 192 221 9,000  Level Boston Center
12:38PM 43.2903 -71.7383 120° Southeast 192 221 9,000  Level Boston Center
12:39PM 43.2586 -71.6703 123° Southeast 192 221 9,000 -180 Level Boston Center
12:40PM 43.2228 -71.6339 143° Southeast 186 214 8,700 -360 Descending Boston Center
12:41PM 43.1767 -71.5803 140° Southeast 194 223 8,300 -360 Descending Boston Center
12:42PM 43.1389 -71.5381 141° Southeast 194 223 8,000 -360 Descending Boston Center
12:43PM 43.0925 -71.4847 140° Southeast 199 229 7,600 -420 Descending Boston Center
12:44PM 43.0333 -71.4167 140° Southeast 202 232 7,200 -420 Descending KA90
12:45PM 43.0000 -71.3667 132° Southeast 200 230 6,800 -360 Descending KA90
12:46PM 42.9500 -71.3333 154° Southeast 193 222 6,500 -360 Descending KA90
12:47PM 42.9167 -71.2833 132° Southeast 191 220 6,100 -240 Descending KA90
12:49PM 42.8667 -71.2333 144° Southeast 184 212 6,000 -60 Descending KA90
12:49PM 42.8333 -71.2000 144° Southeast 174 200 6,000 -180 Level KA90
12:50PM 42.8000 -71.1500 132° Southeast 182 209 5,700 -300 Descending KA90
12:51PM 42.7500 -71.1000 144° Southeast 186 214 5,500 -300 Descending KA90
12:52PM 42.7167 -71.0833 160° South 180 207 5,200 -360 Descending KA90
12:54PM 42.6500 -71.0667 170° South 172 198 4,800 -420 Descending KA90
12:54PM 42.6167 -71.0667 180° South 176 203 4,500 -480 Descending KA90
12:55PM 42.5667 -71.0500 166° South 175 201 4,000 -540 Descending KA90
12:56PM 42.5167 -71.0333 166° South 179 206 3,400 -720 Descending KA90
12:57PM 42.4667 -71.0000 154° Southeast 178 205 2,600 -840 Descending KA90
12:58PM 42.4333 -70.9833 160° South 173 199 1,900 -1,020 Descending KA90
12:59PM 42.4000 -70.9833 180° South 147 169 700 -1,200 Descending KA90
01:01PM 42.3630 -71.0064 170° South  Level Estimated
01:08PM 42.3630 -71.0064 170° South  Level Estimated